sensor_id;sensor_type;location;lat;lon;timestamp;pressure;altitude;pressure_sealevel;temperature;humidity
40155;BME280;25875;48.202;16.334;2023-05-29T00:00:59;99152.16;;;17.48;43.90
40155;BME280;25875;48.202;16.334;2023-05-29T00:03:26;99157.19;;;17.41;43.84
40155;BME280;25875;48.202;16.334;2023-05-29T00:05:55;99159.28;;;17.38;43.89
40155;BME280;25875;48.202;16.334;2023-05-29T00:08:22;99156.72;;;17.36;43.89
40155;BME280;25875;48.202;16.334;2023-05-29T00:10:49;99161.09;;;17.37;44.14
40155;BME280;25875;48.202;16.334;2023-05-29T00:13:15;99166.59;;;17.36;43.88
40155;BME280;25875;48.202;16.334;2023-05-29T00:15:42;99164.91;;;17.35;43.76
40155;BME280;25875;48.202;16.334;2023-05-29T00:18:09;99162.63;;;17.30;44.20
40155;BME280;25875;48.202;16.334;2023-05-29T00:20:36;99169.22;;;17.26;44.15
40155;BME280;25875;48.202;16.334;2023-05-29T00:23:04;99165.69;;;17.25;43.97
40155;BME280;25875;48.202;16.334;2023-05-29T00:25:33;99165.94;;;17.22;44.33
40155;BME280;25875;48.202;16.334;2023-05-29T00:27:59;99158.41;;;17.16;44.44
40155;BME280;25875;48.202;16.334;2023-05-29T00:30:26;99153.19;;;17.15;44.11
40155;BME280;25875;48.202;16.334;2023-05-29T00:32:53;99162.31;;;17.12;44.24
40155;BME280;25875;48.202;16.334;2023-05-29T00:35:20;99158.22;;;17.08;44.59
40155;BME280;25875;48.202;16.334;2023-05-29T00:37:47;99153.56;;;17.10;44.42
40155;BME280;25875;48.202;16.334;2023-05-29T00:40:15;99153.84;;;17.07;44.50
40155;BME280;25875;48.202;16.334;2023-05-29T00:42:42;99020.94;;;16.23;44.61
40155;BME280;25875;48.202;16.334;2023-05-29T00:45:10;99147.31;;;17.00;44.22
40155;BME280;25875;48.202;16.334;2023-05-29T00:47:39;99153.06;;;16.95;44.21
40155;BME280;25875;48.202;16.334;2023-05-29T00:50:07;99068.84;;;16.47;44.38
40155;BME280;25875;48.202;16.334;2023-05-29T00:52:35;99145.28;;;16.92;44.47
40155;BME280;25875;48.202;16.334;2023-05-29T00:55:02;99146.50;;;16.88;44.44
40155;BME280;25875;48.202;16.334;2023-05-29T00:57:30;99126.41;;;16.73;44.74
40155;BME280;25875;48.202;16.334;2023-05-29T00:59:58;99145.66;;;16.88;44.55
40155;BME280;25875;48.202;16.334;2023-05-29T01:02:26;99142.41;;;16.84;44.56
40155;BME280;25875;48.202;16.334;2023-05-29T01:04:54;99140.69;;;16.83;44.40
40155;BME280;25875;48.202;16.334;2023-05-29T01:07:21;99032.16;;;16.17;44.32
40155;BME280;25875;48.202;16.334;2023-05-29T01:09:48;99067.31;;;16.33;44.06
40155;BME280;25875;48.202;16.334;2023-05-29T01:12:22;99145.59;;;16.78;44.43
40155;BME280;25875;48.202;16.334;2023-05-29T01:15:04;99143.19;;;16.75;45.08
40155;BME280;25875;48.202;16.334;2023-05-29T01:17:42;99148.78;;;16.72;44.84
40155;BME280;25875;48.202;16.334;2023-05-29T01:20:25;99149.88;;;16.70;44.75
40155;BME280;25875;48.202;16.334;2023-05-29T01:23:23;99157.19;;;16.67;45.13
40155;BME280;25875;48.202;16.334;2023-05-29T01:26:05;99161.78;;;16.65;44.94
40155;BME280;25875;48.202;16.334;2023-05-29T01:28:40;99153.16;;;16.62;45.44
40155;BME280;25875;48.202;16.334;2023-05-29T01:31:09;99156.81;;;16.61;45.25
40155;BME280;25875;48.202;16.334;2023-05-29T01:33:38;99085.38;;;16.20;45.15
40155;BME280;25875;48.202;16.334;2023-05-29T01:36:06;99149.56;;;16.52;44.99
40155;BME280;25875;48.202;16.334;2023-05-29T01:38:33;99140.94;;;16.48;45.39
40155;BME280;25875;48.202;16.334;2023-05-29T01:41:00;99142.03;;;16.46;45.25
40155;BME280;25875;48.202;16.334;2023-05-29T01:43:27;99139.38;;;16.46;45.67
40155;BME280;25875;48.202;16.334;2023-05-29T01:45:57;99137.66;;;16.45;45.48
40155;BME280;25875;48.202;16.334;2023-05-29T01:48:24;99140.59;;;16.42;45.82
40155;BME280;25875;48.202;16.334;2023-05-29T01:50:53;99138.06;;;16.40;45.50
40155;BME280;25875;48.202;16.334;2023-05-29T01:53:20;99139.88;;;16.40;45.67
40155;BME280;25875;48.202;16.334;2023-05-29T01:55:48;99064.19;;;15.85;46.18
40155;BME280;25875;48.202;16.334;2023-05-29T01:58:16;99139.41;;;16.34;46.13
40155;BME280;25875;48.202;16.334;2023-05-29T02:00:44;99137.84;;;16.32;45.67
40155;BME280;25875;48.202;16.334;2023-05-29T02:03:12;99133.72;;;16.28;45.87
40155;BME280;25875;48.202;16.334;2023-05-29T02:05:39;99101.34;;;15.99;46.36
40155;BME280;25875;48.202;16.334;2023-05-29T02:08:05;99140.66;;;16.19;45.97
40155;BME280;25875;48.202;16.334;2023-05-29T02:10:32;98777.16;;;14.03;46.00
40155;BME280;25875;48.202;16.334;2023-05-29T02:12:59;99135.56;;;16.16;46.22
40155;BME280;25875;48.202;16.334;2023-05-29T02:15:26;99133.00;;;16.15;46.24
40155;BME280;25875;48.202;16.334;2023-05-29T02:17:53;99136.78;;;16.12;46.06
40155;BME280;25875;48.202;16.334;2023-05-29T02:20:21;99119.19;;;15.98;46.09
40155;BME280;25875;48.202;16.334;2023-05-29T02:22:47;99141.53;;;16.09;45.98
40155;BME280;25875;48.202;16.334;2023-05-29T02:25:14;99151.88;;;16.02;46.19
40155;BME280;25875;48.202;16.334;2023-05-29T02:27:41;99144.22;;;15.97;46.12
40155;BME280;25875;48.202;16.334;2023-05-29T02:30:08;99150.66;;;15.95;46.47
40155;BME280;25875;48.202;16.334;2023-05-29T02:32:35;99138.78;;;15.88;46.66
40155;BME280;25875;48.202;16.334;2023-05-29T02:35:02;99119.47;;;15.73;46.68
40155;BME280;25875;48.202;16.334;2023-05-29T02:37:31;99140.97;;;15.83;46.87
40155;BME280;25875;48.202;16.334;2023-05-29T02:39:58;99136.59;;;15.82;46.54
40155;BME280;25875;48.202;16.334;2023-05-29T02:42:25;99137.81;;;15.78;46.63
40155;BME280;25875;48.202;16.334;2023-05-29T02:44:51;99129.91;;;15.76;47.06
40155;BME280;25875;48.202;16.334;2023-05-29T02:47:20;99132.22;;;15.69;46.85
40155;BME280;25875;48.202;16.334;2023-05-29T02:49:46;99130.53;;;15.68;47.26
40155;BME280;25875;48.202;16.334;2023-05-29T02:52:13;99127.13;;;15.66;47.01
40155;BME280;25875;48.202;16.334;2023-05-29T02:54:41;99131.63;;;15.66;47.21
40155;BME280;25875;48.202;16.334;2023-05-29T02:57:08;99131.97;;;15.61;47.30
40155;BME280;25875;48.202;16.334;2023-05-29T02:59:35;98748.19;;;13.30;47.37
40155;BME280;25875;48.202;16.334;2023-05-29T03:02:02;99130.00;;;15.52;47.53
40155;BME280;25875;48.202;16.334;2023-05-29T03:04:29;99126.63;;;15.50;47.79
40155;BME280;25875;48.202;16.334;2023-05-29T03:06:56;99125.03;;;15.48;47.67
40155;BME280;25875;48.202;16.334;2023-05-29T03:09:23;99126.13;;;15.45;47.35
40155;BME280;25875;48.202;16.334;2023-05-29T03:11:51;99126.25;;;15.44;47.75
40155;BME280;25875;48.202;16.334;2023-05-29T03:14:18;99123.69;;;15.42;47.50
40155;BME280;25875;48.202;16.334;2023-05-29T03:16:47;99095.78;;;15.24;47.74
40155;BME280;25875;48.202;16.334;2023-05-29T03:19:16;99120.31;;;15.40;47.76
40155;BME280;25875;48.202;16.334;2023-05-29T03:21:43;99123.81;;;15.40;47.56
40155;BME280;25875;48.202;16.334;2023-05-29T03:24:10;99133.78;;;15.38;47.68
40155;BME280;25875;48.202;16.334;2023-05-29T03:26:38;99125.16;;;15.35;47.45
40155;BME280;25875;48.202;16.334;2023-05-29T03:29:07;99126.25;;;15.32;47.64
40155;BME280;25875;48.202;16.334;2023-05-29T03:31:34;99090.53;;;15.11;47.96
40155;BME280;25875;48.202;16.334;2023-05-29T03:34:01;99103.41;;;15.17;47.83
40155;BME280;25875;48.202;16.334;2023-05-29T03:36:27;99136.31;;;15.29;47.74
40155;BME280;25875;48.202;16.334;2023-05-29T03:38:54;99134.72;;;15.26;48.18
40155;BME280;25875;48.202;16.334;2023-05-29T03:41:21;99134.63;;;15.28;47.91
40155;BME280;25875;48.202;16.334;2023-05-29T03:43:48;99142.75;;;15.26;48.21
40155;BME280;25875;48.202;16.334;2023-05-29T03:46:16;99133.16;;;15.24;48.29
40155;BME280;25875;48.202;16.334;2023-05-29T03:48:43;99133.28;;;15.22;48.05
40155;BME280;25875;48.202;16.334;2023-05-29T03:51:09;99143.94;;;15.22;48.32
40155;BME280;25875;48.202;16.334;2023-05-29T03:53:36;99152.06;;;15.21;48.01
40155;BME280;25875;48.202;16.334;2023-05-29T03:56:04;99117.81;;;15.03;48.31
40155;BME280;25875;48.202;16.334;2023-05-29T03:58:30;99148.66;;;15.19;48.24
40155;BME280;25875;48.202;16.334;2023-05-29T04:00:57;99155.94;;;15.17;48.61
40155;BME280;25875;48.202;16.334;2023-05-29T04:03:26;99157.88;;;15.15;48.76
40155;BME280;25875;48.202;16.334;2023-05-29T04:05:54;99157.16;;;15.13;48.81
40155;BME280;25875;48.202;16.334;2023-05-29T04:08:21;99162.59;;;15.11;48.77
40155;BME280;25875;48.202;16.334;2023-05-29T04:10:48;98793.63;;;12.92;48.89
40155;BME280;25875;48.202;16.334;2023-05-29T04:13:19;99083.13;;;14.57;48.80
40155;BME280;25875;48.202;16.334;2023-05-29T04:15:45;99165.75;;;15.05;49.13
40155;BME280;25875;48.202;16.334;2023-05-29T04:18:12;99160.28;;;15.06;49.08
40155;BME280;25875;48.202;16.334;2023-05-29T04:20:40;99161.38;;;15.04;48.82
40155;BME280;25875;48.202;16.334;2023-05-29T04:23:07;99164.91;;;15.04;49.01
40155;BME280;25875;48.202;16.334;2023-05-29T04:25:34;99164.91;;;15.04;48.91
40155;BME280;25875;48.202;16.334;2023-05-29T04:28:01;99168.53;;;15.03;49.16
40155;BME280;25875;48.202;16.334;2023-05-29T04:30:29;99168.53;;;15.03;49.37
40155;BME280;25875;48.202;16.334;2023-05-29T04:32:57;99169.25;;;15.05;49.34
40155;BME280;25875;48.202;16.334;2023-05-29T04:35:24;99175.09;;;15.11;49.20
40155;BME280;25875;48.202;16.334;2023-05-29T04:37:55;99171.22;;;15.15;49.35
40155;BME280;25875;48.202;16.334;2023-05-29T04:40:22;99178.28;;;15.16;48.93
40155;BME280;25875;48.202;16.334;2023-05-29T04:42:48;99182.53;;;15.18;48.90
40155;BME280;25875;48.202;16.334;2023-05-29T04:45:15;99184.00;;;15.22;49.12
40155;BME280;25875;48.202;16.334;2023-05-29T04:47:48;99184.38;;;15.29;49.32
40155;BME280;25875;48.202;16.334;2023-05-29T04:50:16;99190.56;;;15.29;49.23
40155;BME280;25875;48.202;16.334;2023-05-29T04:52:43;99187.88;;;15.29;49.16
40155;BME280;25875;48.202;16.334;2023-05-29T04:55:12;99185.84;;;15.33;49.42
40155;BME280;25875;48.202;16.334;2023-05-29T04:57:38;99185.84;;;15.33;49.08
40155;BME280;25875;48.202;16.334;2023-05-29T05:00:06;99131.53;;;14.99;49.39
40155;BME280;25875;48.202;16.334;2023-05-29T05:02:39;99198.47;;;15.42;49.44
40155;BME280;25875;48.202;16.334;2023-05-29T05:05:06;99186.22;;;15.51;49.15
40155;BME280;25875;48.202;16.334;2023-05-29T05:07:33;99188.53;;;15.55;48.96
40155;BME280;25875;48.202;16.334;2023-05-29T05:10:02;99189.03;;;15.60;48.90
40155;BME280;25875;48.202;16.334;2023-05-29T05:12:31;99194.13;;;15.63;48.94
40155;BME280;25875;48.202;16.334;2023-05-29T05:14:58;99201.81;;;15.68;49.15
40155;BME280;25875;48.202;16.334;2023-05-29T05:17:24;99198.03;;;15.70;48.94
40155;BME280;25875;48.202;16.334;2023-05-29T05:19:53;99203.88;;;15.76;49.07
40155;BME280;25875;48.202;16.334;2023-05-29T05:22:20;99195.50;;;15.80;48.87
40155;BME280;25875;48.202;16.334;2023-05-29T05:24:47;99196.84;;;15.86;49.19
40155;BME280;25875;48.202;16.334;2023-05-29T05:27:13;99198.06;;;15.93;48.52
40155;BME280;25875;48.202;16.334;2023-05-29T05:29:42;99190.50;;;15.98;48.35
40155;BME280;25875;48.202;16.334;2023-05-29T05:32:08;99206.06;;;16.04;48.71
40155;BME280;25875;48.202;16.334;2023-05-29T05:34:35;99196.69;;;16.10;48.19
40155;BME280;25875;48.202;16.334;2023-05-29T05:37:02;99203.38;;;16.15;48.01
40155;BME280;25875;48.202;16.334;2023-05-29T05:39:29;99203.72;;;16.22;48.05
40155;BME280;25875;48.202;16.334;2023-05-29T05:41:56;99201.41;;;16.28;47.95
40155;BME280;25875;48.202;16.334;2023-05-29T05:44:22;99178.22;;;16.18;47.82
40155;BME280;25875;48.202;16.334;2023-05-29T05:46:51;99202.50;;;16.37;47.41
40155;BME280;25875;48.202;16.334;2023-05-29T05:49:18;99202.25;;;16.40;47.19
40155;BME280;25875;48.202;16.334;2023-05-29T05:51:44;99204.53;;;16.45;47.61
40155;BME280;25875;48.202;16.334;2023-05-29T05:54:11;99206.72;;;16.51;47.19
40155;BME280;25875;48.202;16.334;2023-05-29T05:56:38;99197.59;;;16.53;46.63
40155;BME280;25875;48.202;16.334;2023-05-29T05:59:05;99196.75;;;16.53;46.71
40155;BME280;25875;48.202;16.334;2023-05-29T06:01:32;99204.25;;;16.59;46.72
40155;BME280;25875;48.202;16.334;2023-05-29T06:04:00;99196.56;;;16.65;46.63
40155;BME280;25875;48.202;16.334;2023-05-29T06:06:26;99208.63;;;16.71;46.76
40155;BME280;25875;48.202;16.334;2023-05-29T06:08:53;99209.22;;;16.75;46.68
40155;BME280;25875;48.202;16.334;2023-05-29T06:11:21;99219.56;;;16.79;46.62
40155;BME280;25875;48.202;16.334;2023-05-29T06:13:48;99213.69;;;16.85;46.69
40155;BME280;25875;48.202;16.334;2023-05-29T06:16:15;99217.69;;;16.91;46.52
40155;BME280;25875;48.202;16.334;2023-05-29T06:18:42;99206.59;;;16.95;46.68
40155;BME280;25875;48.202;16.334;2023-05-29T06:21:11;99208.88;;;17.00;46.55
40155;BME280;25875;48.202;16.334;2023-05-29T06:23:38;99216.53;;;17.05;46.54
40155;BME280;25875;48.202;16.334;2023-05-29T06:26:06;99218.69;;;17.11;46.02
40155;BME280;25875;48.202;16.334;2023-05-29T06:28:33;99074.03;;;16.27;46.02
40155;BME280;25875;48.202;16.334;2023-05-29T06:31:01;99187.72;;;16.97;46.42
40155;BME280;25875;48.202;16.334;2023-05-29T06:33:27;99228.28;;;17.24;45.80
40155;BME280;25875;48.202;16.334;2023-05-29T06:35:55;99226.19;;;17.28;45.95
40155;BME280;25875;48.202;16.334;2023-05-29T06:38:23;99228.34;;;17.34;45.58
40155;BME280;25875;48.202;16.334;2023-05-29T06:40:50;99224.41;;;17.38;45.75
40155;BME280;25875;48.202;16.334;2023-05-29T06:43:17;99225.97;;;17.41;45.12
40155;BME280;25875;48.202;16.334;2023-05-29T06:45:43;99224.88;;;17.43;45.38
40155;BME280;25875;48.202;16.334;2023-05-29T06:48:10;99239.56;;;17.49;45.21
40155;BME280;25875;48.202;16.334;2023-05-29T06:50:37;99231.88;;;17.55;45.08
40155;BME280;25875;48.202;16.334;2023-05-29T06:53:03;99230.63;;;17.59;44.97
40155;BME280;25875;48.202;16.334;2023-05-29T06:55:32;99236.19;;;17.68;45.54
40155;BME280;25875;48.202;16.334;2023-05-29T06:57:58;99233.56;;;17.77;45.26
40155;BME280;25875;48.202;16.334;2023-05-29T07:00:25;99163.38;;;17.42;45.05
40155;BME280;25875;48.202;16.334;2023-05-29T07:02:52;99234.06;;;17.92;45.11
40155;BME280;25875;48.202;16.334;2023-05-29T07:05:19;99236.06;;;18.00;44.81
40155;BME280;25875;48.202;16.334;2023-05-29T07:07:46;99239.66;;;18.10;44.36
40155;BME280;25875;48.202;16.334;2023-05-29T07:10:12;99235.56;;;18.15;44.66
40155;BME280;25875;48.202;16.334;2023-05-29T07:12:41;99238.13;;;18.17;43.90
40155;BME280;25875;48.202;16.334;2023-05-29T07:15:08;99238.44;;;18.23;44.37
40155;BME280;25875;48.202;16.334;2023-05-29T07:17:35;99231.53;;;18.31;44.42
40155;BME280;25875;48.202;16.334;2023-05-29T07:20:02;99191.53;;;18.18;43.90
40155;BME280;25875;48.202;16.334;2023-05-29T07:22:33;99229.88;;;18.49;43.92
40155;BME280;25875;48.202;16.334;2023-05-29T07:25:00;99214.06;;;18.46;43.23
40155;BME280;25875;48.202;16.334;2023-05-29T07:27:33;99236.59;;;18.64;43.18
40155;BME280;25875;48.202;16.334;2023-05-29T07:30:02;99170.28;;;18.36;43.45
40155;BME280;25875;48.202;16.334;2023-05-29T07:32:30;98864.16;;;16.73;43.36
40155;BME280;25875;48.202;16.334;2023-05-29T07:34:57;98896.81;;;17.07;42.82
40155;BME280;25875;48.202;16.334;2023-05-29T07:37:24;99233.81;;;19.23;42.84
40155;BME280;25875;48.202;16.334;2023-05-29T07:39:51;99241.88;;;19.43;42.31
40155;BME280;25875;48.202;16.334;2023-05-29T07:42:18;99250.63;;;19.54;42.45
40155;BME280;25875;48.202;16.334;2023-05-29T07:44:44;99200.72;;;19.42;42.15
40155;BME280;25875;48.202;16.334;2023-05-29T07:47:13;99244.34;;;19.93;41.98
40155;BME280;25875;48.202;16.334;2023-05-29T07:49:40;99248.25;;;20.08;41.61
40155;BME280;25875;48.202;16.334;2023-05-29T07:52:06;99244.38;;;20.20;41.25
40155;BME280;25875;48.202;16.334;2023-05-29T07:54:33;99195.19;;;20.00;40.96
40155;BME280;25875;48.202;16.334;2023-05-29T07:57:00;99230.06;;;20.29;40.97
40155;BME280;25875;48.202;16.334;2023-05-29T07:59:29;99195.59;;;20.05;40.90
40155;BME280;25875;48.202;16.334;2023-05-29T08:01:56;99198.69;;;20.10;40.70
40155;BME280;25875;48.202;16.334;2023-05-29T08:04:25;99252.25;;;20.41;40.37
40155;BME280;25875;48.202;16.334;2023-05-29T08:06:52;99243.56;;;20.47;40.39
40155;BME280;25875;48.202;16.334;2023-05-29T08:09:19;99243.97;;;20.52;40.40
40155;BME280;25875;48.202;16.334;2023-05-29T08:11:46;99201.47;;;20.28;40.38
40155;BME280;25875;48.202;16.334;2023-05-29T08:14:13;99245.31;;;20.66;40.35
40155;BME280;25875;48.202;16.334;2023-05-29T08:16:40;99244.00;;;20.70;40.44
40155;BME280;25875;48.202;16.334;2023-05-29T08:19:07;99241.84;;;20.73;40.16
40155;BME280;25875;48.202;16.334;2023-05-29T08:21:36;99244.38;;;20.75;40.13
40155;BME280;25875;48.202;16.334;2023-05-29T08:24:03;99212.06;;;20.57;40.06
40155;BME280;25875;48.202;16.334;2023-05-29T08:26:31;99250.31;;;20.78;40.19
40155;BME280;25875;48.202;16.334;2023-05-29T08:28:58;99239.25;;;20.81;40.33
40155;BME280;25875;48.202;16.334;2023-05-29T08:31:29;99251.09;;;20.89;40.14
40155;BME280;25875;48.202;16.334;2023-05-29T08:33:55;99245.09;;;20.95;40.17
40155;BME280;25875;48.202;16.334;2023-05-29T08:36:24;99236.13;;;21.04;39.97
40155;BME280;25875;48.202;16.334;2023-05-29T08:38:53;99235.19;;;21.13;39.80
40155;BME280;25875;48.202;16.334;2023-05-29T08:41:23;99233.28;;;21.23;39.40
40155;BME280;25875;48.202;16.334;2023-05-29T08:43:52;99243.44;;;21.29;39.16
40155;BME280;25875;48.202;16.334;2023-05-29T08:46:19;99236.41;;;21.36;39.13
40155;BME280;25875;48.202;16.334;2023-05-29T08:48:48;99241.88;;;21.44;38.31
40155;BME280;25875;48.202;16.334;2023-05-29T08:51:19;99202.84;;;21.31;38.34
40155;BME280;25875;48.202;16.334;2023-05-29T08:53:46;99202.28;;;21.45;38.78
40155;BME280;25875;48.202;16.334;2023-05-29T08:56:15;99135.72;;;21.20;38.58
40155;BME280;25875;48.202;16.334;2023-05-29T08:58:43;99210.44;;;21.79;38.11
40155;BME280;25875;48.202;16.334;2023-05-29T09:01:11;99107.97;;;21.27;38.06
40155;BME280;25875;48.202;16.334;2023-05-29T09:03:37;99238.63;;;22.10;38.00
40155;BME280;25875;48.202;16.334;2023-05-29T09:06:04;99234.59;;;22.15;37.69
40155;BME280;25875;48.202;16.334;2023-05-29T09:08:35;99235.28;;;22.17;37.47
40155;BME280;25875;48.202;16.334;2023-05-29T09:11:02;99235.47;;;22.23;37.68
40155;BME280;25875;48.202;16.334;2023-05-29T09:13:30;98879.31;;;20.21;37.53
40155;BME280;25875;48.202;16.334;2023-05-29T09:15:58;99228.09;;;22.33;37.42
40155;BME280;25875;48.202;16.334;2023-05-29T09:18:28;99230.03;;;22.41;37.10
40155;BME280;25875;48.202;16.334;2023-05-29T09:20:55;99233.44;;;22.51;37.47
40155;BME280;25875;48.202;16.334;2023-05-29T09:23:22;99232.97;;;22.56;36.67
40155;BME280;25875;48.202;16.334;2023-05-29T09:25:51;99230.97;;;22.58;36.11
40155;BME280;25875;48.202;16.334;2023-05-29T09:28:20;99212.22;;;22.56;36.79
40155;BME280;25875;48.202;16.334;2023-05-29T09:30:50;99232.38;;;22.78;36.86
40155;BME280;25875;48.202;16.334;2023-05-29T09:33:17;99233.91;;;22.89;36.62
40155;BME280;25875;48.202;16.334;2023-05-29T09:35:45;99229.53;;;22.96;36.61
40155;BME280;25875;48.202;16.334;2023-05-29T09:38:14;99229.19;;;22.99;36.55
40155;BME280;25875;48.202;16.334;2023-05-29T09:40:41;99244.41;;;23.08;36.64
40155;BME280;25875;48.202;16.334;2023-05-29T09:43:12;99227.00;;;23.11;36.51
40155;BME280;25875;48.202;16.334;2023-05-29T09:45:40;99189.66;;;22.98;36.38
40155;BME280;25875;48.202;16.334;2023-05-29T09:48:16;99225.50;;;23.24;35.28
40155;BME280;25875;48.202;16.334;2023-05-29T09:50:45;99031.50;;;22.13;36.05
40155;BME280;25875;48.202;16.334;2023-05-29T09:53:17;99221.13;;;23.31;35.25
40155;BME280;25875;48.202;16.334;2023-05-29T09:55:46;99229.25;;;23.40;36.18
40155;BME280;25875;48.202;16.334;2023-05-29T09:58:13;99233.31;;;23.52;36.54
40155;BME280;25875;48.202;16.334;2023-05-29T10:00:41;99228.38;;;23.63;36.16
40155;BME280;25875;48.202;16.334;2023-05-29T10:03:10;99227.34;;;23.73;35.67
40155;BME280;25875;48.202;16.334;2023-05-29T10:05:38;99230.06;;;23.81;35.84
40155;BME280;25875;48.202;16.334;2023-05-29T10:08:05;99223.44;;;23.91;35.79
40155;BME280;25875;48.202;16.334;2023-05-29T10:10:37;99216.84;;;24.02;35.29
40155;BME280;25875;48.202;16.334;2023-05-29T10:13:06;99218.50;;;24.11;35.11
40155;BME280;25875;48.202;16.334;2023-05-29T10:15:36;99218.31;;;24.13;35.64
40155;BME280;25875;48.202;16.334;2023-05-29T10:18:07;99217.94;;;24.24;35.58
40155;BME280;25875;48.202;16.334;2023-05-29T10:20:40;99210.81;;;24.31;35.20
40155;BME280;25875;48.202;16.334;2023-05-29T10:23:08;99204.16;;;24.42;34.99
40155;BME280;25875;48.202;16.334;2023-05-29T10:25:35;99197.53;;;24.44;34.57
40155;BME280;25875;48.202;16.334;2023-05-29T10:28:03;99165.31;;;24.26;34.06
40155;BME280;25875;48.202;16.334;2023-05-29T10:30:35;99201.22;;;24.51;33.19
40155;BME280;25875;48.202;16.334;2023-05-29T10:33:14;99190.53;;;24.58;32.39
40155;BME280;25875;48.202;16.334;2023-05-29T10:35:47;99195.75;;;24.68;33.11
40155;BME280;25875;48.202;16.334;2023-05-29T10:38:15;99190.09;;;24.77;33.03
40155;BME280;25875;48.202;16.334;2023-05-29T10:40:44;99182.09;;;24.84;32.57
40155;BME280;25875;48.202;16.334;2023-05-29T10:43:30;99185.69;;;24.76;29.78
40155;BME280;25875;48.202;16.334;2023-05-29T10:45:57;99148.31;;;24.63;32.60
40155;BME280;25875;48.202;16.334;2023-05-29T10:48:40;99174.44;;;24.87;30.04
40155;BME280;25875;48.202;16.334;2023-05-29T10:51:24;99154.22;;;24.75;29.85
40155;BME280;25875;48.202;16.334;2023-05-29T10:53:51;99037.97;;;24.12;31.87
40155;BME280;25875;48.202;16.334;2023-05-29T10:56:21;99188.56;;;25.06;30.91
40155;BME280;25875;48.202;16.334;2023-05-29T10:58:53;99180.38;;;25.14;31.26
40155;BME280;25875;48.202;16.334;2023-05-29T11:01:21;99108.69;;;24.71;30.90
40155;BME280;25875;48.202;16.334;2023-05-29T11:03:48;99157.72;;;25.07;31.14
40155;BME280;25875;48.202;16.334;2023-05-29T11:06:20;99179.91;;;25.10;30.53
40155;BME280;25875;48.202;16.334;2023-05-29T11:08:54;99157.09;;;24.74;29.04
40155;BME280;25875;48.202;16.334;2023-05-29T11:11:31;99173.78;;;24.85;28.17
40155;BME280;25875;48.202;16.334;2023-05-29T11:14:02;99185.81;;;24.83;30.30
40155;BME280;25875;48.202;16.334;2023-05-29T11:16:37;99171.56;;;24.89;28.94
40155;BME280;25875;48.202;16.334;2023-05-29T11:19:07;99174.09;;;24.90;30.51
40155;BME280;25875;48.202;16.334;2023-05-29T11:21:51;99164.09;;;24.91;29.00
40155;BME280;25875;48.202;16.334;2023-05-29T11:24:22;99169.63;;;24.98;30.45
40155;BME280;25875;48.202;16.334;2023-05-29T11:26:51;99179.91;;;25.10;30.66
40155;BME280;25875;48.202;16.334;2023-05-29T11:29:22;99173.75;;;25.16;29.53
40155;BME280;25875;48.202;16.334;2023-05-29T11:31:53;99145.69;;;25.09;30.10
40155;BME280;25875;48.202;16.334;2023-05-29T11:34:22;99090.97;;;24.83;30.18
40155;BME280;25875;48.202;16.334;2023-05-29T11:36:52;99177.97;;;25.42;29.90
40155;BME280;25875;48.202;16.334;2023-05-29T11:39:19;99177.69;;;25.51;31.17
40155;BME280;25875;48.202;16.334;2023-05-29T11:41:50;99170.59;;;25.50;29.11
40155;BME280;25875;48.202;16.334;2023-05-29T11:44:17;99184.22;;;25.42;29.80
40155;BME280;25875;48.202;16.334;2023-05-29T11:46:44;99168.13;;;25.41;30.33
40155;BME280;25875;48.202;16.334;2023-05-29T11:49:11;99168.72;;;25.51;30.29
40155;BME280;25875;48.202;16.334;2023-05-29T11:51:37;99173.28;;;25.50;29.96
40155;BME280;25875;48.202;16.334;2023-05-29T11:54:06;99173.56;;;25.41;29.25
40155;BME280;25875;48.202;16.334;2023-05-29T11:56:33;99171.81;;;25.48;30.19
40155;BME280;25875;48.202;16.334;2023-05-29T11:59:00;99168.72;;;25.51;29.69
40155;BME280;25875;48.202;16.334;2023-05-29T12:01:34;99168.59;;;25.44;27.93
40155;BME280;25875;48.202;16.334;2023-05-29T12:04:00;99164.22;;;25.43;28.92
40155;BME280;25875;48.202;16.334;2023-05-29T12:06:31;99147.75;;;25.45;28.00
40155;BME280;25875;48.202;16.334;2023-05-29T12:08:59;99133.91;;;25.40;29.06
40155;BME280;25875;48.202;16.334;2023-05-29T12:11:29;99152.81;;;25.63;28.85
40155;BME280;25875;48.202;16.334;2023-05-29T12:13:56;99128.03;;;25.51;28.61
40155;BME280;25875;48.202;16.334;2023-05-29T12:16:25;99147.03;;;25.66;28.68
40155;BME280;25875;48.202;16.334;2023-05-29T12:18:53;99150.88;;;25.71;29.03
40155;BME280;25875;48.202;16.334;2023-05-29T12:21:21;99146.56;;;25.77;28.91
40155;BME280;25875;48.202;16.334;2023-05-29T12:23:51;99101.81;;;25.43;28.10
40155;BME280;25875;48.202;16.334;2023-05-29T12:26:18;99138.50;;;25.54;28.96
40155;BME280;25875;48.202;16.334;2023-05-29T12:28:48;99136.16;;;25.51;28.48
40155;BME280;25875;48.202;16.334;2023-05-29T12:31:26;99071.72;;;25.15;28.34
40155;BME280;25875;48.202;16.334;2023-05-29T12:33:59;99040.25;;;24.91;28.83
40155;BME280;25875;48.202;16.334;2023-05-29T12:36:26;99141.78;;;25.49;28.59
40155;BME280;25875;48.202;16.334;2023-05-29T12:38:53;99135.50;;;25.49;28.77
40155;BME280;25875;48.202;16.334;2023-05-29T12:41:24;99135.97;;;25.52;28.25
40155;BME280;25875;48.202;16.334;2023-05-29T12:43:54;99069.03;;;25.15;28.65
40155;BME280;25875;48.202;16.334;2023-05-29T12:46:22;99136.63;;;25.69;28.84
40155;BME280;25875;48.202;16.334;2023-05-29T12:48:49;98786.44;;;23.64;28.58
40155;BME280;25875;48.202;16.334;2023-05-29T12:51:22;99132.91;;;25.85;27.69
40155;BME280;25875;48.202;16.334;2023-05-29T12:53:50;99137.38;;;25.92;28.79
40155;BME280;25875;48.202;16.334;2023-05-29T12:56:20;99135.13;;;25.96;28.33